Springlake, TX

9:36 AM CDT on July 13, 2014 (GMT -0500)
Lubbock International (KLBB) Elev 3241 ft | 33.67 °N, 101.82 °W | Change Station

Current weather conditions updated 43 minutes ago

Partly Cloudy
Partly Cloudy
77 °F
Feels Like 77 °F
N
13
Wind Variable Wind from SSW

Today is forecast to be nearly the same temperature as yesterday.

Today
High -- | Low -- °F
--% Chance of Precip.
Yesterday
High -- | Low -- °F
Precip. -- in
6:47 AM 9:02 PM
Full, 98% visible
Pressure 30.05 in
Visibility 10.0 miles
Clouds Few 15000 ft
Few 20000 ft
Dew Point 61 °F
Humidity 58%
Rainfall 0.00 in
Snow Depth Not available.
UV 2 out of 12
Pollen 3.40 out of 12
Air Quality Not available.
Flu Activity Sporadic
METAR KLBB 131353Z 21011KT 10SM FEW150 FEW200 25/16 A3021 RMK AO2 SLP175 T02500161 $

More Conditions Fewer Conditions

Pressure 30.05 in
Visibility 10.0 miles
Clouds Few 15000 ft
Few 20000 ft
Dew Point 61 °F
Humidity 58%
Rainfall 0.00 in
Snow Depth Not available.
UV 2 out of 12
Pollen 3.40 out of 12
Air Quality Not available.
Flu Activity Sporadic
METAR KLBB 131353Z 21011KT 10SM FEW150 FEW200 25/16 A3021 RMK AO2 SLP175 T02500161 $

More Conditions Fewer Conditions

10-Day Weather Forecast

Almanac

Astronomy

Jul. 13, 2014 Rise Set
Actual Time 6:47 AM CDT 9:02 PM CDT
Civil Twilight 6:18 AM CDT 9:31 PM CDT
Nautical Twilight 5:43 AM CDT 10:06 PM CDT
Astronomical Twilight 5:05 AM CDT 10:44 PM CDT
Moon 9:59 PM CDT 8:14 AM CDT
Length of Visible Light 15h 12m
Length of Day
14h 15m
Tomorrow will be 1m 1s shorter.
Full, 98% of the Moon is Illuminated
Today
Full
Jul 18
Last Quarter
Jul 26
New
Aug 3
First Quarter
Aug 10
Full

Today's Extremes

State Highs State Lows

Community

WunderPhotos

Upload Photos

1,733,220 photos uploaded!

Nearby

Snow Depth

Station Depth Elevation
No new snow has been reported.

Earthquake Activity

City Distance Mag. Time & Date
No recent earthquake activity has been reported nearby.
Minimum magnitude displayed is 2.5.

Coastal Water Temperatures

Place Temperature
No Stations Reporting

Nearby Weather Stations

Station Location Temp. Heat Index Dew Point Humidity Wind Precip. Elev Updated Type
WT_Meso Olton 6S, Olton, TX 73 °F 75 °F 61 °F 68% WSW  at  6 mph 0.00 in / hr 3565 ft 8:55 AM CDT MADIS
WT_Meso Amherst 1NE, Amherst, TX 73 °F 75 °F 61 °F 68% SW  at  6 mph 0.00 in / hr 3646 ft 8:55 AM CDT MADIS
WT_Meso Hart 3N, Hart, TX 73 °F 75 °F 61 °F 69% NW  at  4 mph 0.00 in / hr 3693 ft 8:55 AM CDT MADIS
West Bedford SMB, Dimmitt, TX 75.9 °F 78 °F 62 °F 61% SW  at  2.9 mph 0.00 in / hr 3904 ft 9:36 AM CDT Rapid Fire
WT_Meso Dimmitt 2NE, Dimmitt, TX 74 °F 77 °F 60 °F 62% WSW  at  2 mph 0.00 in / hr 3875 ft 8:55 AM CDT MADIS
WT_Meso Muleshoe 2S, Muleshoe, TX 72 °F 75 °F 60 °F 68% North  at  2 mph 0.00 in / hr 3806 ft 8:55 AM CDT MADIS

Show More Stations Show Fewer Stations